createdAt,value
2019-03-28T00:00:54.400Z,99.00
2019-03-28T00:03:42.714Z,99.00
2019-03-28T00:06:31.115Z,99.00
2019-03-28T00:09:19.471Z,98.90
2019-03-28T00:12:07.913Z,98.90
2019-03-28T00:14:56.326Z,99.20
2019-03-28T00:17:45.686Z,99.10
2019-03-28T00:20:34.826Z,99.10
2019-03-28T00:23:43.986Z,99.30
2019-03-28T00:26:32.517Z,99.60
2019-03-28T00:29:20.657Z,99.70
2019-03-28T00:32:08.672Z,99.60
2019-03-28T00:34:56.848Z,99.80
2019-03-28T00:37:45.535Z,99.60
2019-03-28T00:40:33.849Z,99.80
2019-03-28T00:43:21.837Z,99.90
2019-03-28T00:46:10.126Z,99.90
2019-03-28T00:48:58.397Z,99.90
2019-03-28T00:51:46.298Z,99.90
2019-03-28T00:54:34.277Z,99.90
2019-03-28T00:57:22.177Z,99.90
2019-03-28T01:00:11.962Z,99.90
2019-03-28T01:02:59.914Z,99.80
2019-03-28T01:05:48.063Z,99.90
2019-03-28T01:08:37.001Z,99.90
2019-03-28T01:11:25.245Z,99.90
2019-03-28T01:14:13.321Z,99.90
2019-03-28T01:17:01.689Z,99.80
2019-03-28T01:19:49.497Z,99.90
2019-03-28T01:22:37.801Z,99.70
2019-03-28T01:25:26.183Z,99.70
2019-03-28T01:28:14.402Z,99.90
2019-03-28T01:31:02.565Z,99.80
2019-03-28T01:33:50.515Z,99.80
2019-03-28T01:36:38.990Z,99.70
2019-03-28T01:39:26.888Z,99.70
2019-03-28T01:42:14.755Z,99.70
2019-03-28T01:45:02.870Z,99.80
2019-03-28T01:47:51.195Z,99.90
2019-03-28T01:50:39.257Z,99.90
2019-03-28T01:53:27.316Z,99.90
2019-03-28T01:56:16.183Z,99.90
2019-03-28T01:59:04.694Z,99.90
2019-03-28T02:01:52.920Z,99.90
2019-03-28T02:04:41.323Z,99.90
2019-03-28T02:07:29.455Z,99.90
2019-03-28T02:10:17.858Z,99.90
2019-03-28T02:13:06.343Z,99.90
2019-03-28T02:15:54.338Z,99.90
2019-03-28T02:18:42.892Z,99.90
2019-03-28T02:21:31.179Z,99.90
2019-03-28T02:24:19.638Z,99.90
2019-03-28T02:27:08.053Z,99.90
2019-03-28T02:29:56.008Z,99.90
2019-03-28T02:32:43.881Z,99.90
2019-03-28T02:35:32.091Z,99.90
2019-03-28T02:38:20.275Z,99.90
2019-03-28T02:41:08.974Z,99.90
2019-03-28T02:43:57.235Z,99.90
2019-03-28T02:46:45.678Z,99.90
2019-03-28T02:49:33.706Z,99.90
2019-03-28T02:52:22.282Z,99.90
2019-03-28T02:55:10.604Z,99.90
2019-03-28T02:57:58.875Z,99.90
2019-03-28T03:00:48.105Z,99.70
2019-03-28T03:03:36.983Z,99.70
2019-03-28T03:06:24.905Z,99.70
2019-03-28T03:09:12.871Z,99.60
2019-03-28T03:12:01.420Z,99.70
2019-03-28T03:14:49.969Z,99.70
2019-03-28T03:17:38.365Z,99.70
2019-03-28T03:20:26.244Z,99.60
2019-03-28T03:23:14.758Z,99.60
2019-03-28T03:26:03.048Z,99.60
2019-03-28T03:28:51.608Z,99.50
2019-03-28T03:31:40.316Z,99.30
2019-03-28T03:34:28.528Z,99.10
2019-03-28T03:37:16.837Z,99.00
2019-03-28T03:40:06.447Z,98.80
2019-03-28T03:42:54.535Z,99.00
2019-03-28T03:45:43.062Z,98.80
2019-03-28T03:48:31.187Z,98.70
2019-03-28T03:51:19.870Z,98.70
2019-03-28T03:54:08.346Z,98.60
2019-03-28T03:56:56.788Z,98.70
2019-03-28T03:59:45.137Z,98.80
2019-03-28T04:02:33.658Z,98.60
2019-03-28T04:05:22.160Z,98.90
2019-03-28T04:08:10.796Z,99.00
2019-03-28T04:10:59.037Z,99.10
2019-03-28T04:13:47.679Z,99.20
2019-03-28T04:16:36.032Z,99.30
2019-03-28T04:19:24.158Z,99.30
2019-03-28T04:22:12.667Z,99.40
2019-03-28T04:25:00.886Z,99.50
2019-03-28T04:27:50.053Z,99.80
2019-03-28T04:30:38.154Z,99.90
2019-03-28T04:33:26.287Z,99.90
2019-03-28T04:36:14.800Z,99.90
2019-03-28T04:39:04.908Z,99.90
2019-03-28T04:41:53.610Z,99.90
2019-03-28T04:44:42.072Z,99.90
2019-03-28T04:47:30.764Z,99.90
2019-03-28T04:50:18.884Z,99.90
2019-03-28T04:53:06.880Z,99.90
2019-03-28T04:55:54.782Z,99.90
2019-03-28T04:58:44.658Z,99.90
2019-03-28T05:01:33.505Z,99.90
2019-03-28T05:04:21.595Z,99.90
2019-03-28T05:07:09.976Z,99.90
2019-03-28T05:09:58.496Z,99.90
2019-03-28T05:12:46.792Z,99.90
2019-03-28T05:15:35.139Z,99.90
2019-03-28T05:18:23.457Z,99.90
2019-03-28T05:21:11.298Z,99.90
2019-03-28T05:23:59.469Z,99.90
2019-03-28T05:26:48.366Z,99.90
2019-03-28T05:29:36.849Z,99.90
2019-03-28T05:32:25.025Z,99.90
2019-03-28T05:35:13.088Z,99.90
2019-03-28T05:38:02.389Z,99.90
2019-03-28T05:40:50.518Z,99.90
2019-03-28T05:43:39.077Z,99.90
2019-03-28T05:46:27.112Z,99.90
2019-03-28T05:49:15.072Z,99.90
2019-03-28T05:52:03.242Z,99.90
2019-03-28T05:54:51.329Z,99.90
2019-03-28T05:57:40.192Z,99.90
2019-03-28T06:00:28.443Z,99.90
2019-03-28T06:03:16.837Z,99.90
2019-03-28T06:06:05.515Z,99.90
2019-03-28T06:08:53.916Z,99.50
2019-03-28T06:11:42.393Z,99.40
2019-03-28T06:14:30.618Z,99.10
2019-03-28T06:17:19.153Z,99.00
2019-03-28T06:20:08.271Z,98.90
2019-03-28T06:22:56.646Z,98.80
2019-03-28T06:25:45.244Z,98.60
2019-03-28T06:28:33.561Z,98.60
2019-03-28T06:31:21.765Z,98.70
2019-03-28T06:34:09.867Z,98.40
2019-03-28T06:36:58.293Z,98.40
2019-03-28T06:39:46.250Z,97.70
2019-03-28T06:42:34.302Z,97.90
2019-03-28T06:45:22.153Z,97.60
2019-03-28T06:48:10.662Z,97.60
2019-03-28T06:50:58.509Z,97.30
2019-03-28T06:53:46.949Z,97.20
2019-03-28T06:56:35.304Z,97.30
2019-03-28T06:59:36.287Z,97.30
2019-03-28T07:02:13.207Z,96.70
2019-03-28T07:05:01.173Z,96.60
2019-03-28T07:07:49.958Z,96.30
2019-03-28T07:10:37.953Z,96.40
2019-03-28T07:13:25.810Z,96.30
2019-03-28T07:16:14.049Z,95.80
2019-03-28T07:19:02.680Z,94.70
2019-03-28T07:21:50.921Z,94.60
2019-03-28T07:24:39.506Z,94.60
2019-03-28T07:27:27.456Z,94.40
2019-03-28T07:30:16.756Z,93.70
2019-03-28T07:33:04.709Z,94.20
2019-03-28T07:35:52.932Z,93.50
2019-03-28T07:38:40.897Z,93.10
2019-03-28T07:41:29.247Z,93.40
2019-03-28T07:44:17.522Z,92.80
2019-03-28T07:47:06.107Z,92.60
2019-03-28T07:49:54.027Z,92.50
2019-03-28T07:52:42.550Z,92.50
2019-03-28T07:55:31.639Z,91.50
2019-03-28T07:58:20.277Z,91.70
2019-03-28T08:01:08.885Z,92.00
2019-03-28T08:03:57.351Z,91.60
2019-03-28T08:06:50.008Z,91.80
2019-03-28T08:09:37.082Z,90.20
2019-03-28T08:12:25.710Z,90.60
2019-03-28T08:15:14.555Z,90.80
2019-03-28T08:18:02.632Z,91.00
2019-03-28T08:20:50.699Z,90.90
2019-03-28T08:23:39.464Z,90.10
2019-03-28T08:26:30.109Z,86.70
2019-03-28T08:29:17.122Z,85.00
2019-03-28T08:32:09.188Z,84.70
2019-03-28T08:34:57.660Z,86.40
2019-03-28T08:37:45.943Z,83.90
2019-03-28T08:40:39.757Z,88.20
2019-03-28T08:43:27.007Z,90.30
2019-03-28T08:46:15.450Z,90.60
2019-03-28T08:49:03.957Z,88.20
2019-03-28T08:51:52.416Z,88.90
2019-03-28T08:54:40.903Z,87.20
2019-03-28T08:57:29.374Z,85.00
2019-03-28T09:00:32.346Z,84.50
2019-03-28T09:03:07.887Z,83.80
2019-03-28T09:05:56.334Z,84.50
2019-03-28T09:08:44.635Z,85.10
2019-03-28T09:11:32.728Z,82.90
2019-03-28T09:14:20.793Z,83.10
2019-03-28T09:17:09.376Z,83.50
2019-03-28T09:19:57.685Z,81.70
2019-03-28T09:22:45.780Z,81.30
2019-03-28T09:25:34.229Z,81.00
2019-03-28T09:28:22.657Z,81.10
2019-03-28T09:31:19.897Z,80.70
2019-03-28T09:34:00.801Z,81.00
2019-03-28T09:36:49.343Z,76.60
2019-03-28T09:39:37.306Z,76.00
2019-03-28T09:42:25.442Z,77.00
2019-03-28T09:45:13.749Z,74.80
2019-03-28T09:48:01.905Z,74.50
2019-03-28T09:50:50.086Z,74.60
2019-03-28T09:53:38.313Z,72.80
2019-03-28T09:56:26.425Z,72.60
2019-03-28T09:59:14.934Z,72.20
2019-03-28T10:02:03.435Z,71.20
2019-03-28T10:04:51.909Z,70.20
2019-03-28T10:07:40.648Z,72.20
2019-03-28T10:10:28.797Z,74.80
2019-03-28T10:13:17.058Z,76.20
2019-03-28T10:16:05.188Z,75.50
2019-03-28T10:18:53.457Z,76.50
2019-03-28T10:21:41.867Z,74.80
2019-03-28T10:24:30.256Z,73.10
2019-03-28T10:27:19.336Z,74.50
2019-03-28T10:30:08.598Z,72.90
2019-03-28T10:32:56.662Z,74.70
2019-03-28T10:35:45.133Z,72.70
2019-03-28T10:38:33.158Z,72.50
2019-03-28T10:41:21.412Z,71.40
2019-03-28T10:44:09.940Z,69.40
2019-03-28T10:46:57.939Z,70.10
2019-03-28T10:49:46.591Z,65.60
2019-03-28T10:52:35.054Z,69.60
2019-03-28T10:55:23.209Z,67.40
2019-03-28T10:58:18.706Z,67.50
2019-03-28T11:01:01.357Z,66.90
2019-03-28T11:03:49.728Z,67.20
2019-03-28T11:06:38.144Z,64.80
2019-03-28T11:09:26.176Z,63.10
2019-03-28T11:12:14.398Z,63.50
2019-03-28T11:15:02.248Z,63.50
2019-03-28T11:17:50.932Z,60.70
2019-03-28T11:20:40.135Z,60.40
2019-03-28T11:23:28.640Z,60.40
2019-03-28T11:26:16.784Z,64.40
2019-03-28T11:29:05.203Z,63.90
2019-03-28T11:31:53.540Z,60.50
2019-03-28T11:34:41.770Z,61.90
2019-03-28T11:37:30.060Z,61.80
2019-03-28T11:40:18.086Z,60.80
2019-03-28T11:43:07.229Z,61.00
2019-03-28T11:45:55.449Z,58.80
2019-03-28T11:48:43.862Z,59.30
2019-03-28T11:51:32.561Z,60.00
2019-03-28T11:54:20.915Z,60.50
2019-03-28T11:57:09.338Z,58.90
2019-03-28T11:59:58.103Z,58.90
2019-03-28T12:02:46.739Z,58.20
2019-03-28T12:05:35.310Z,59.10
2019-03-28T12:08:23.730Z,58.50
2019-03-28T12:11:11.972Z,58.60
2019-03-28T12:14:00.336Z,59.00
2019-03-28T12:16:48.754Z,58.00
2019-03-28T12:19:36.913Z,56.90
2019-03-28T12:22:25.284Z,57.50
2019-03-28T12:25:14.287Z,57.90
2019-03-28T12:28:02.803Z,57.70
2019-03-28T12:30:51.135Z,57.00
2019-03-28T12:33:39.737Z,56.30
2019-03-28T12:36:27.454Z,55.80
2019-03-28T12:39:16.019Z,55.60
2019-03-28T12:42:04.506Z,55.40
2019-03-28T12:44:57.150Z,55.80
2019-03-28T12:47:43.379Z,55.00
2019-03-28T12:50:32.102Z,55.50
2019-03-28T12:53:19.969Z,55.60
2019-03-28T12:56:08.050Z,55.20
2019-03-28T12:58:56.407Z,55.10
2019-03-28T13:01:44.576Z,51.90
2019-03-28T13:04:32.464Z,51.70
2019-03-28T13:07:20.885Z,52.70
2019-03-28T13:10:11.014Z,53.70
2019-03-28T13:12:59.592Z,53.50
2019-03-28T13:15:48.408Z,53.60
2019-03-28T13:18:36.713Z,53.50
2019-03-28T13:21:24.850Z,54.90
2019-03-28T13:24:13.169Z,54.80
2019-03-28T13:27:01.545Z,54.10
2019-03-28T13:29:50.046Z,54.20
2019-03-28T13:32:41.936Z,55.00
2019-03-28T13:35:27.916Z,54.50
2019-03-28T13:38:15.955Z,54.60
2019-03-28T13:41:04.395Z,54.50
2019-03-28T13:43:52.262Z,54.30
2019-03-28T13:46:40.634Z,54.50
2019-03-28T13:49:28.713Z,54.80
2019-03-28T13:52:17.379Z,54.50
2019-03-28T13:55:05.785Z,55.50
2019-03-28T13:57:54.299Z,54.80
2019-03-28T14:00:42.373Z,54.40
2019-03-28T14:03:31.060Z,54.40
2019-03-28T14:06:19.496Z,54.00
2019-03-28T14:09:08.365Z,54.60
2019-03-28T14:11:56.694Z,54.60
2019-03-28T14:14:45.477Z,55.60
2019-03-28T14:17:35.096Z,54.90
2019-03-28T14:20:23.902Z,54.60
2019-03-28T14:23:12.172Z,54.80
2019-03-28T14:26:00.869Z,54.80
2019-03-28T14:28:50.346Z,55.40
2019-03-28T14:31:38.767Z,55.10
2019-03-28T14:34:26.845Z,54.90
2019-03-28T14:37:17.081Z,55.70
2019-03-28T14:40:05.173Z,55.00
2019-03-28T14:42:53.405Z,55.40
2019-03-28T14:45:41.905Z,55.90
2019-03-28T14:48:30.004Z,55.20
2019-03-28T14:51:18.558Z,56.00
2019-03-28T14:54:07.217Z,56.40
2019-03-28T14:56:56.678Z,56.30
2019-03-28T14:59:46.282Z,55.90
2019-03-28T15:02:34.796Z,56.10
2019-03-28T15:05:23.663Z,55.90
2019-03-28T15:08:12.013Z,55.90
2019-03-28T15:11:00.352Z,55.30
2019-03-28T15:13:49.422Z,55.60
2019-03-28T15:16:38.063Z,55.60
2019-03-28T15:19:26.336Z,55.70
2019-03-28T15:22:14.541Z,56.40
2019-03-28T15:25:03.149Z,56.70
2019-03-28T15:27:51.861Z,57.40
2019-03-28T15:30:40.112Z,57.70
2019-03-28T15:33:38.741Z,58.30
2019-03-28T15:36:18.557Z,58.30
2019-03-28T15:39:08.876Z,58.20
2019-03-28T15:41:56.888Z,58.60
2019-03-28T15:44:45.747Z,58.20
2019-03-28T15:47:33.759Z,58.30
2019-03-28T15:50:22.437Z,58.90
2019-03-28T15:53:10.677Z,58.30
2019-03-28T15:55:59.367Z,58.70
2019-03-28T15:58:47.704Z,58.50
2019-03-28T16:01:36.038Z,58.40
2019-03-28T16:04:24.927Z,58.80
2019-03-28T16:07:13.654Z,58.80
2019-03-28T16:10:02.197Z,59.00
2019-03-28T16:12:50.949Z,59.20
2019-03-28T16:15:39.279Z,59.20
2019-03-28T16:18:27.721Z,60.00
2019-03-28T16:21:16.108Z,60.20
2019-03-28T16:24:04.473Z,60.00
2019-03-28T16:26:52.784Z,59.70
2019-03-28T16:29:40.953Z,60.20
2019-03-28T16:32:30.392Z,61.20
2019-03-28T16:35:21.248Z,61.30
2019-03-28T16:38:08.914Z,61.30
2019-03-28T16:40:57.866Z,61.40
2019-03-28T16:43:46.058Z,62.20
2019-03-28T16:46:34.307Z,61.70
2019-03-28T16:49:22.906Z,62.90
2019-03-28T16:52:11.241Z,63.70
2019-03-28T16:54:59.664Z,64.30
2019-03-28T16:57:47.619Z,64.90
2019-03-28T17:00:37.336Z,65.60
2019-03-28T17:03:25.737Z,66.50
2019-03-28T17:06:14.235Z,66.90
2019-03-28T17:09:02.874Z,67.20
2019-03-28T17:11:51.100Z,67.90
2019-03-28T17:14:39.042Z,68.30
2019-03-28T17:17:28.049Z,69.10
2019-03-28T17:20:16.544Z,69.90
2019-03-28T17:23:04.545Z,70.50
2019-03-28T17:25:53.114Z,71.30
2019-03-28T17:28:41.280Z,71.50
2019-03-28T17:31:29.661Z,72.00
2019-03-28T17:34:17.696Z,72.60
2019-03-28T17:37:06.363Z,73.40
2019-03-28T17:39:54.520Z,74.00
2019-03-28T17:42:42.636Z,74.60
2019-03-28T17:45:30.600Z,74.90
2019-03-28T17:48:18.893Z,75.40
2019-03-28T17:51:07.389Z,75.70
2019-03-28T17:53:56.376Z,76.10
2019-03-28T17:56:44.723Z,76.40
2019-03-28T17:59:32.657Z,77.00
2019-03-28T18:02:21.447Z,77.80
2019-03-28T18:05:12.847Z,78.40
2019-03-28T18:08:00.146Z,78.50
2019-03-28T18:10:48.838Z,79.40
2019-03-28T18:13:37.341Z,80.00
2019-03-28T18:16:25.672Z,80.50
2019-03-28T18:19:13.995Z,80.90
2019-03-28T18:22:04.008Z,81.50
2019-03-28T18:24:52.648Z,82.00
2019-03-28T18:27:41.026Z,82.60
2019-03-28T18:30:29.357Z,83.00
2019-03-28T18:33:17.965Z,83.50
2019-03-28T18:36:06.308Z,83.70
2019-03-28T18:38:54.682Z,84.50
2019-03-28T18:41:43.098Z,85.00
2019-03-28T18:44:31.368Z,85.20
2019-03-28T18:47:19.992Z,85.70
2019-03-28T18:50:09.141Z,86.00
2019-03-28T18:52:57.063Z,86.40
2019-03-28T18:55:45.374Z,87.10
2019-03-28T18:58:33.596Z,87.70
2019-03-28T19:01:22.133Z,87.40
2019-03-28T19:04:09.936Z,88.20
2019-03-28T19:06:58.326Z,88.50
2019-03-28T19:09:46.581Z,88.60
2019-03-28T19:12:35.401Z,89.00
2019-03-28T19:15:24.003Z,89.10
2019-03-28T19:18:12.225Z,89.30
2019-03-28T19:21:01.255Z,90.20
2019-03-28T19:23:50.658Z,90.00
2019-03-28T19:26:39.003Z,90.40
2019-03-28T19:29:27.401Z,90.40
2019-03-28T19:32:15.668Z,90.50
2019-03-28T19:35:04.348Z,90.60
2019-03-28T19:37:52.770Z,90.60
2019-03-28T19:40:41.401Z,90.80
2019-03-28T19:43:30.561Z,90.80
2019-03-28T19:46:19.910Z,90.90
2019-03-28T19:49:08.346Z,91.00
2019-03-28T19:51:56.737Z,91.20
2019-03-28T19:54:45.192Z,91.30
2019-03-28T19:57:34.197Z,91.50
2019-03-28T20:00:22.443Z,91.60
2019-03-28T20:03:10.972Z,91.90
2019-03-28T20:05:59.391Z,92.00
2019-03-28T20:08:48.028Z,92.30
2019-03-28T20:11:36.835Z,92.50
2019-03-28T20:14:25.261Z,92.50
2019-03-28T20:17:13.670Z,92.70
2019-03-28T20:20:02.251Z,92.80
2019-03-28T20:22:50.615Z,92.80
2019-03-28T20:25:42.686Z,93.00
2019-03-28T20:28:29.406Z,93.10
2019-03-28T20:31:17.445Z,93.20
2019-03-28T20:34:06.091Z,93.40
2019-03-28T20:36:54.924Z,93.50
2019-03-28T20:39:43.452Z,93.60
2019-03-28T20:42:31.772Z,93.60
2019-03-28T20:45:22.106Z,93.70
2019-03-28T20:48:10.690Z,93.50
2019-03-28T20:50:59.015Z,93.60
2019-03-28T20:53:47.633Z,93.60
2019-03-28T20:56:37.025Z,93.60
2019-03-28T20:59:25.478Z,93.70
2019-03-28T21:02:14.108Z,93.60
2019-03-28T21:05:02.859Z,94.00
2019-03-28T21:07:50.777Z,93.60
2019-03-28T21:10:38.817Z,93.50
2019-03-28T21:13:29.769Z,93.60
2019-03-28T21:16:17.175Z,93.90
2019-03-28T21:19:05.804Z,93.90
2019-03-28T21:21:55.017Z,94.00
2019-03-28T21:24:43.680Z,94.30
2019-03-28T21:27:33.094Z,94.20
2019-03-28T21:30:22.062Z,94.50
2019-03-28T21:33:10.319Z,94.50
2019-03-28T21:35:58.514Z,94.50
2019-03-28T21:38:46.762Z,94.50
2019-03-28T21:41:35.144Z,94.70
2019-03-28T21:44:23.790Z,94.70
2019-03-28T21:47:11.798Z,94.70
2019-03-28T21:50:01.071Z,94.70
2019-03-28T21:52:49.939Z,94.90
2019-03-28T21:55:38.185Z,95.30
2019-03-28T21:58:26.770Z,95.30
2019-03-28T22:01:14.702Z,95.20
2019-03-28T22:04:02.978Z,95.30
2019-03-28T22:06:51.267Z,95.30
2019-03-28T22:09:39.909Z,95.40
2019-03-28T22:12:28.419Z,95.40
2019-03-28T22:15:16.460Z,95.50
2019-03-28T22:18:04.710Z,95.70
2019-03-28T22:20:53.271Z,95.70
2019-03-28T22:23:41.634Z,95.60
2019-03-28T22:26:29.982Z,95.70
2019-03-28T22:29:19.096Z,95.80
2019-03-28T22:32:11.348Z,95.80
2019-03-28T22:34:58.109Z,95.70
2019-03-28T22:37:46.517Z,95.60
2019-03-28T22:40:34.774Z,95.70
2019-03-28T22:43:22.883Z,95.80
2019-03-28T22:46:11.287Z,95.90
2019-03-28T22:48:59.226Z,95.80
2019-03-28T22:51:47.191Z,95.90
2019-03-28T22:54:35.789Z,96.00
2019-03-28T22:57:23.696Z,96.00
2019-03-28T23:00:12.725Z,96.10
2019-03-28T23:03:01.883Z,96.10
2019-03-28T23:05:50.438Z,95.90
2019-03-28T23:08:38.795Z,95.70
2019-03-28T23:11:27.008Z,96.10
2019-03-28T23:14:15.110Z,96.10
2019-03-28T23:17:03.700Z,96.20
2019-03-28T23:19:51.997Z,96.10
2019-03-28T23:22:40.302Z,96.00
2019-03-28T23:25:28.555Z,96.00
2019-03-28T23:28:16.882Z,96.00
2019-03-28T23:31:05.427Z,96.00
2019-03-28T23:33:53.373Z,96.00
2019-03-28T23:36:41.698Z,96.20
2019-03-28T23:39:30.568Z,95.90
2019-03-28T23:42:19.320Z,96.20
2019-03-28T23:45:11.557Z,96.20
2019-03-28T23:47:59.417Z,96.40
2019-03-28T23:50:47.345Z,96.50
2019-03-28T23:53:35.701Z,96.70
2019-03-28T23:56:23.927Z,96.80
2019-03-28T23:59:13.184Z,96.70
